首页
METAR-TAF:

METAR-TAF

机场 :

Beaufort, 南卡罗来纳州, 美国

纬度: 32-29-37N, 经度: 080-42-11W, 海拔: 11米

当前天气观测

该预报发布于1小时和0分钟前的18:56 UTC
风速5节,风向南转南东
温度 32°C
湿度 56%
气压 1023 hPa
能見度: 16.1公里
少量云层高于4200英尺

METAR: KNBC 231856Z 15005KT 10SM FEW042 32/22 A3022 RMK AO2 SLP235 T03170222

时间: 15:56 (19:56 UTC)

预报

预报有效从23日的 15点(UTC)到 24日的 15点(UTC)
风速6节,风向多变
能见度10公里或以上
散云层高于3000英尺
成为
从 23日的 18点(UTC)到 23日的 20点(UTC)
风速12节,风向东南
能见度10公里或以上
散云层高于4000英尺
短暂存在
从 23日的 18点(UTC)到 23日的 23点(UTC)
风速10节,风向东南,有时为19节阵风
从 24日的 0000点(UTC)
风速6节,风向多变
能见度10公里或以上
天空无云

TAF: KNBC 2315/2415 VRB06KT 9999 SCT030 QNH3023INS BECMG 2318/2320 14012KT 9999 SCT040 QNH3013INS TEMPO 2318/2323 14010G19KT FM240000 VRB06KT 9999 SKC QNH3002INS T32/2316Z T23/2409Z

超过4000个机场的气象观测和天气预报(METAR&TAF报告)。

可查询的气象台以黄色和红色小点在地图上表示。

将鼠标移到小点上方,可查看气象台名称。

然后点击查看天气观测和预报。

如需切换地图:点击带黑十字的绿色按钮放大地图;点击带横线的绿色按钮缩小地图;或者点击绿色箭头查看邻近地区的地图。


METAR-TAF: